createdAt,value
2022-10-29T00:01:12.031Z,19.65
2022-10-29T00:03:40.274Z,19.63
2022-10-29T00:06:12.317Z,19.63
2022-10-29T00:08:42.110Z,19.65
2022-10-29T00:11:18.831Z,19.68
2022-10-29T00:13:49.169Z,19.67
2022-10-29T00:16:21.238Z,19.63
2022-10-29T00:18:49.529Z,19.59
2022-10-29T00:21:21.339Z,19.56
2022-10-29T00:23:50.735Z,19.50
2022-10-29T00:26:21.979Z,19.45
2022-10-29T00:28:54.003Z,19.45
2022-10-29T00:31:26.244Z,19.43
2022-10-29T00:33:56.024Z,19.40
2022-10-29T00:36:29.509Z,19.40
2022-10-29T00:38:57.828Z,19.40
2022-10-29T00:41:29.519Z,19.41
2022-10-29T00:44:18.716Z,19.36
2022-10-29T00:46:52.950Z,19.31
2022-10-29T00:49:21.724Z,19.26
2022-10-29T00:51:50.042Z,19.23
2022-10-29T00:54:18.966Z,19.21
2022-10-29T00:56:54.489Z,19.23
2022-10-29T00:59:22.717Z,19.23
2022-10-29T01:01:51.139Z,19.21
2022-10-29T01:04:20.782Z,19.21
2022-10-29T01:06:49.473Z,19.20
2022-10-29T01:09:17.542Z,19.21
2022-10-29T01:12:35.813Z,19.20
2022-10-29T01:15:14.570Z,19.25
2022-10-29T01:18:24.771Z,19.23
2022-10-29T01:21:07.493Z,19.24
2022-10-29T01:24:18.886Z,19.21
2022-10-29T01:27:17.709Z,19.20
2022-10-29T01:30:31.866Z,19.14
2022-10-29T01:33:50.444Z,19.14
2022-10-29T01:36:51.768Z,19.13
2022-10-29T01:39:57.674Z,19.15
2022-10-29T01:42:41.573Z,19.16
2022-10-29T01:45:21.792Z,19.27
2022-10-29T01:48:07.024Z,19.21
2022-10-29T01:50:38.254Z,19.19
2022-10-29T01:53:06.783Z,19.18
2022-10-29T01:55:35.501Z,19.21
2022-10-29T01:58:06.002Z,19.24
2022-10-29T02:01:12.670Z,19.27
2022-10-29T02:03:54.336Z,19.30
2022-10-29T02:07:06.557Z,19.32
2022-10-29T02:09:41.360Z,19.31
2022-10-29T02:12:23.242Z,19.28
2022-10-29T02:15:00.709Z,19.28
2022-10-29T02:17:34.540Z,19.27
2022-10-29T02:20:12.712Z,19.32
2022-10-29T02:22:41.014Z,19.31
2022-10-29T02:25:11.224Z,19.27
2022-10-29T02:27:39.360Z,19.26
2022-10-29T02:30:08.409Z,19.25
2022-10-29T02:32:36.582Z,19.25
2022-10-29T02:35:05.413Z,19.24
2022-10-29T02:37:33.481Z,19.19
2022-10-29T02:40:01.576Z,19.16
2022-10-29T02:42:29.631Z,19.15
2022-10-29T02:44:57.736Z,19.10
2022-10-29T02:47:25.797Z,19.10
2022-10-29T02:49:54.015Z,19.11
2022-10-29T02:52:22.091Z,19.06
2022-10-29T02:54:50.311Z,19.03
2022-10-29T02:57:18.486Z,18.98
2022-10-29T02:59:46.593Z,18.98
2022-10-29T03:02:14.880Z,18.90
2022-10-29T03:04:44.533Z,18.86
2022-10-29T03:07:12.735Z,18.84
2022-10-29T03:09:40.846Z,18.80
2022-10-29T03:12:09.143Z,18.75
2022-10-29T03:14:37.345Z,18.73
2022-10-29T03:17:05.430Z,18.67
2022-10-29T03:19:33.630Z,18.64
2022-10-29T03:22:01.712Z,18.67
2022-10-29T03:24:29.815Z,18.66
2022-10-29T03:26:57.876Z,18.68
2022-10-29T03:29:25.980Z,18.70
2022-10-29T03:31:54.162Z,18.69
2022-10-29T03:34:22.272Z,18.66
2022-10-29T03:36:51.049Z,18.66
2022-10-29T03:39:19.160Z,18.69
2022-10-29T03:41:47.139Z,18.70
2022-10-29T03:44:15.190Z,18.72
2022-10-29T03:46:43.283Z,18.72
2022-10-29T03:49:11.355Z,18.72
2022-10-29T03:51:39.899Z,18.69
2022-10-29T03:54:08.009Z,18.66
2022-10-29T03:56:36.065Z,18.67
2022-10-29T03:59:04.347Z,18.67
2022-10-29T04:01:32.615Z,18.66
2022-10-29T04:04:00.791Z,18.64
2022-10-29T04:06:28.876Z,18.65
2022-10-29T04:08:56.987Z,18.58
2022-10-29T04:11:25.057Z,18.44
2022-10-29T04:13:54.202Z,18.42
2022-10-29T04:16:22.428Z,18.47
2022-10-29T04:18:50.638Z,18.54
2022-10-29T04:29:43.446Z,18.61
2022-10-29T04:32:11.499Z,18.59
2022-10-29T04:34:39.603Z,18.55
2022-10-29T04:37:08.051Z,18.55
2022-10-29T04:39:36.228Z,18.57
2022-10-29T04:42:04.311Z,18.55
2022-10-29T04:44:32.411Z,18.54
2022-10-29T04:47:00.474Z,18.48
2022-10-29T04:49:28.643Z,18.53
2022-10-29T04:51:56.761Z,18.53
2022-10-29T04:54:24.863Z,18.52
2022-10-29T04:56:52.924Z,18.53
2022-10-29T04:59:21.846Z,18.47
2022-10-29T05:01:50.079Z,18.42
2022-10-29T05:04:18.250Z,18.39
2022-10-29T05:06:46.359Z,18.36
2022-10-29T05:09:14.536Z,18.32
2022-10-29T05:11:42.741Z,18.30
2022-10-29T05:14:10.845Z,18.26
2022-10-29T05:16:38.902Z,18.22
2022-10-29T05:19:07.226Z,18.19
2022-10-29T05:21:35.315Z,18.16
2022-10-29T05:24:03.531Z,18.14
2022-10-29T05:26:32.816Z,18.08
2022-10-29T05:29:01.116Z,18.05
2022-10-29T05:31:29.197Z,17.98
2022-10-29T05:33:57.418Z,17.90
2022-10-29T05:36:25.483Z,17.84
2022-10-29T05:38:53.593Z,17.78
2022-10-29T05:41:21.661Z,17.75
2022-10-29T05:43:50.590Z,17.74
2022-10-29T05:46:18.893Z,17.71
2022-10-29T05:48:47.004Z,17.70
2022-10-29T05:51:15.180Z,17.66
2022-10-29T05:53:43.400Z,17.64
2022-10-29T05:56:11.462Z,17.61
2022-10-29T05:58:39.688Z,17.62
2022-10-29T06:01:10.434Z,17.59
2022-10-29T06:03:39.394Z,17.57
2022-10-29T06:06:08.927Z,17.51
2022-10-29T06:08:37.636Z,17.49
2022-10-29T06:11:05.835Z,17.46
2022-10-29T06:13:34.056Z,17.41
2022-10-29T06:16:02.506Z,17.41
2022-10-29T06:18:30.702Z,17.40
2022-10-29T06:21:00.689Z,17.41
2022-10-29T06:23:29.625Z,17.46
2022-10-29T06:26:01.950Z,17.49
2022-10-29T06:28:34.490Z,17.50
2022-10-29T06:31:03.296Z,17.55
2022-10-29T06:33:31.539Z,17.53
2022-10-29T06:36:01.668Z,17.55
2022-10-29T06:38:30.112Z,17.58
2022-10-29T06:40:58.429Z,17.60
2022-10-29T06:43:26.532Z,17.63
2022-10-29T06:45:54.731Z,17.66
2022-10-29T06:48:23.522Z,17.68
2022-10-29T06:50:53.063Z,17.70
2022-10-29T06:53:21.380Z,17.73
2022-10-29T06:55:49.561Z,17.74
2022-10-29T06:58:20.888Z,17.77
2022-10-29T07:00:49.407Z,17.82
2022-10-29T07:03:20.548Z,17.86
2022-10-29T07:05:57.132Z,17.90
2022-10-29T07:08:25.837Z,17.95
2022-10-29T07:10:54.737Z,17.97
2022-10-29T07:13:23.082Z,18.02
2022-10-29T07:15:51.380Z,18.09
2022-10-29T07:18:19.614Z,18.15
2022-10-29T07:20:47.787Z,18.22
2022-10-29T07:23:16.076Z,18.28
2022-10-29T07:25:44.190Z,18.32
2022-10-29T07:28:16.613Z,18.39
2022-10-29T07:30:45.660Z,18.45
2022-10-29T07:33:15.044Z,18.49
2022-10-29T07:35:44.815Z,18.54
2022-10-29T07:38:13.725Z,18.60
2022-10-29T07:40:49.393Z,18.67
2022-10-29T07:43:19.251Z,18.72
2022-10-29T07:45:50.088Z,18.75
2022-10-29T07:48:20.842Z,18.82
2022-10-29T07:50:49.613Z,18.89
2022-10-29T07:53:17.833Z,18.99
2022-10-29T07:55:55.887Z,19.08
2022-10-29T07:58:24.683Z,19.17
2022-10-29T08:00:54.011Z,19.24
2022-10-29T08:03:22.505Z,19.31
2022-10-29T08:05:56.271Z,19.39
2022-10-29T08:08:25.532Z,19.45
2022-10-29T08:10:53.596Z,19.52
2022-10-29T08:13:21.696Z,19.56
2022-10-29T08:15:49.756Z,19.63
2022-10-29T08:18:18.824Z,19.64
2022-10-29T08:20:47.002Z,19.66
2022-10-29T08:23:15.347Z,19.67
2022-10-29T08:25:43.887Z,19.70
2022-10-29T08:28:16.179Z,19.72
2022-10-29T08:30:48.932Z,19.77
2022-10-29T08:33:17.974Z,19.81
2022-10-29T08:35:46.056Z,19.84
2022-10-29T08:38:14.259Z,19.89
2022-10-29T08:41:20.141Z,19.92
2022-10-29T08:44:40.564Z,19.94
2022-10-29T08:47:21.949Z,19.94
2022-10-29T08:49:58.812Z,19.96
2022-10-29T08:52:37.552Z,19.99
2022-10-29T08:55:27.146Z,20.03
2022-10-29T08:57:59.678Z,20.08
2022-10-29T09:00:39.072Z,20.12
2022-10-29T09:03:12.624Z,20.14
2022-10-29T09:05:59.769Z,20.19
2022-10-29T09:09:26.543Z,20.22
2022-10-29T09:12:29.433Z,20.29
2022-10-29T09:15:41.777Z,20.35
2022-10-29T09:18:56.799Z,20.42
2022-10-29T09:21:54.418Z,20.53
2022-10-29T09:24:59.425Z,20.59
2022-10-29T09:27:57.898Z,20.69
2022-10-29T09:30:31.860Z,20.80
2022-10-29T09:33:10.953Z,20.98
2022-10-29T09:35:53.675Z,21.01
2022-10-29T09:38:32.102Z,21.06
2022-10-29T09:41:03.044Z,21.09
2022-10-29T09:43:46.029Z,21.14
2022-10-29T09:46:48.790Z,21.20
2022-10-29T09:50:05.214Z,21.28
2022-10-29T09:52:43.851Z,21.33
2022-10-29T09:55:27.894Z,21.34
2022-10-29T10:00:29.580Z,21.38
2022-10-29T10:03:16.297Z,21.45
2022-10-29T10:06:17.348Z,21.49
2022-10-29T10:09:05.109Z,21.53
2022-10-29T10:11:40.176Z,21.55
2022-10-29T10:14:22.650Z,21.58
2022-10-29T10:17:01.764Z,21.63
2022-10-29T10:19:32.598Z,21.62
2022-10-29T10:22:04.882Z,21.65
2022-10-29T10:24:38.248Z,21.66
2022-10-29T10:27:18.448Z,21.70
2022-10-29T10:30:04.424Z,21.75
2022-10-29T10:32:32.853Z,21.77
2022-10-29T10:35:00.954Z,21.80
2022-10-29T10:37:33.936Z,21.84
2022-10-29T10:40:05.641Z,21.93
2022-10-29T10:42:39.609Z,21.97
2022-10-29T10:45:37.305Z,22.03
2022-10-29T10:48:11.152Z,22.10
2022-10-29T10:50:39.370Z,22.16
2022-10-29T10:53:39.612Z,22.21
2022-10-29T10:56:18.836Z,22.31
2022-10-29T10:59:15.738Z,22.35
2022-10-29T11:01:48.710Z,22.45
2022-10-29T11:04:29.904Z,22.51
2022-10-29T11:07:05.438Z,22.55
2022-10-29T11:09:42.986Z,22.61
2022-10-29T11:12:33.505Z,22.68
2022-10-29T11:15:29.560Z,22.75
2022-10-29T11:18:20.665Z,22.85
2022-10-29T11:21:13.130Z,22.94
2022-10-29T11:23:59.691Z,23.01
2022-10-29T11:26:35.785Z,23.08
2022-10-29T11:29:47.465Z,23.17
2022-10-29T11:32:50.792Z,23.27
2022-10-29T11:35:41.917Z,23.36
2022-10-29T11:38:23.346Z,23.48
2022-10-29T11:41:05.152Z,23.56
2022-10-29T11:43:34.243Z,23.60
2022-10-29T11:46:15.286Z,23.69
2022-10-29T11:49:09.314Z,23.82
2022-10-29T11:51:45.170Z,24.08
2022-10-29T11:54:34.012Z,24.10
2022-10-29T11:57:27.193Z,24.14
2022-10-29T12:00:13.618Z,24.22
2022-10-29T12:03:12.797Z,24.32
2022-10-29T12:05:59.618Z,24.42
2022-10-29T12:08:48.697Z,24.50
2022-10-29T12:11:26.497Z,24.60
2022-10-29T12:14:26.849Z,24.72
2022-10-29T12:17:26.782Z,24.83
2022-10-29T12:20:27.903Z,24.89
2022-10-29T12:23:25.424Z,24.97
2022-10-29T12:26:32.725Z,25.02
2022-10-29T12:29:33.085Z,25.10
2022-10-29T12:32:13.291Z,25.14
2022-10-29T12:35:11.870Z,25.20
2022-10-29T12:38:16.560Z,25.26
2022-10-29T12:40:49.207Z,25.31
2022-10-29T12:43:27.699Z,25.38
2022-10-29T12:46:25.036Z,25.46
2022-10-29T12:49:23.422Z,25.55
2022-10-29T12:52:07.840Z,25.63
2022-10-29T12:54:41.285Z,25.66
2022-10-29T12:57:16.958Z,25.72
2022-10-29T12:59:45.982Z,25.73
2022-10-29T13:02:46.373Z,25.83
2022-10-29T13:05:17.762Z,25.89
2022-10-29T13:07:45.725Z,25.92
2022-10-29T13:10:27.258Z,25.99
2022-10-29T13:13:17.554Z,26.04
2022-10-29T13:15:57.037Z,26.08
2022-10-29T13:18:32.057Z,26.10
2022-10-29T13:21:00.153Z,26.12
2022-10-29T13:23:29.300Z,26.15
2022-10-29T13:25:59.444Z,26.17
2022-10-29T13:28:27.427Z,26.22
2022-10-29T13:31:04.254Z,26.26
2022-10-29T13:33:32.549Z,26.28
2022-10-29T13:36:19.139Z,26.30
2022-10-29T13:39:05.059Z,26.33
2022-10-29T13:41:43.412Z,26.33
2022-10-29T13:44:26.324Z,26.31
2022-10-29T13:47:01.209Z,26.33
2022-10-29T13:49:39.405Z,26.32
2022-10-29T13:52:20.690Z,26.33
2022-10-29T13:55:15.322Z,26.34
2022-10-29T13:58:02.936Z,26.36
2022-10-29T14:00:36.057Z,26.36
2022-10-29T14:03:19.384Z,26.51
2022-10-29T14:05:47.249Z,26.47
2022-10-29T14:08:15.960Z,26.37
2022-10-29T14:10:43.887Z,26.35
2022-10-29T14:13:23.508Z,26.33
2022-10-29T14:16:07.791Z,26.33
2022-10-29T14:18:47.614Z,26.33
2022-10-29T14:21:28.157Z,26.29
2022-10-29T14:24:07.545Z,26.27
2022-10-29T14:26:39.580Z,26.25
2022-10-29T14:29:26.501Z,26.23
2022-10-29T14:32:18.686Z,26.24
2022-10-29T14:34:50.756Z,26.21
2022-10-29T14:37:48.932Z,26.20
2022-10-29T14:40:21.701Z,26.17
2022-10-29T14:42:55.782Z,26.15
2022-10-29T14:45:30.701Z,26.09
2022-10-29T14:48:09.724Z,26.07
2022-10-29T14:50:37.906Z,26.03
2022-10-29T14:53:19.788Z,25.97
2022-10-29T14:55:49.791Z,25.93
2022-10-29T14:58:29.427Z,25.91
2022-10-29T15:01:05.968Z,25.88
2022-10-29T15:03:35.394Z,25.83
2022-10-29T15:06:19.954Z,25.81
2022-10-29T15:08:59.794Z,25.78
2022-10-29T15:12:02.675Z,25.74
2022-10-29T15:14:45.878Z,25.70
2022-10-29T15:17:47.533Z,25.67
2022-10-29T15:20:44.688Z,25.63
2022-10-29T15:23:35.562Z,25.55
2022-10-29T15:26:17.068Z,25.50
2022-10-29T15:28:48.303Z,25.41
2022-10-29T15:31:40.359Z,25.35
2022-10-29T15:34:15.631Z,25.32
2022-10-29T15:36:58.605Z,25.30
2022-10-29T15:39:29.553Z,25.29
2022-10-29T15:42:00.637Z,25.26
2022-10-29T15:44:35.947Z,25.22
2022-10-29T15:47:28.989Z,25.20
2022-10-29T15:49:57.072Z,25.16
2022-10-29T15:52:51.886Z,25.10
2022-10-29T15:55:35.004Z,25.03
2022-10-29T15:58:19.614Z,24.98
2022-10-29T16:00:47.848Z,24.89
2022-10-29T16:03:25.017Z,24.82
2022-10-29T16:06:12.330Z,24.75
2022-10-29T16:08:55.644Z,24.66
2022-10-29T16:11:24.667Z,24.58
2022-10-29T16:13:55.161Z,24.48
2022-10-29T16:16:25.750Z,24.40
2022-10-29T16:18:54.716Z,24.31
2022-10-29T16:21:25.905Z,24.24
2022-10-29T16:23:54.348Z,24.12
2022-10-29T16:26:25.316Z,24.07
2022-10-29T16:28:53.678Z,23.97
2022-10-29T16:31:29.870Z,23.90
2022-10-29T16:34:01.426Z,23.81
2022-10-29T16:36:29.491Z,23.73
2022-10-29T16:38:57.598Z,23.64
2022-10-29T16:41:25.894Z,23.56
2022-10-29T16:43:54.012Z,23.50
2022-10-29T16:46:22.301Z,23.42
2022-10-29T16:48:50.502Z,23.36
2022-10-29T16:51:18.586Z,23.31
2022-10-29T16:53:46.699Z,23.24
2022-10-29T16:56:14.749Z,23.19
2022-10-29T16:58:42.851Z,23.13
2022-10-29T17:01:11.101Z,23.08
2022-10-29T17:03:39.381Z,23.02
2022-10-29T17:06:09.962Z,22.98
2022-10-29T17:08:38.883Z,22.93
2022-10-29T17:11:10.474Z,22.87
2022-10-29T17:13:38.794Z,22.82
2022-10-29T17:16:14.784Z,22.78
2022-10-29T17:18:42.999Z,22.75
2022-10-29T17:21:11.176Z,22.71
2022-10-29T17:23:39.277Z,22.67
2022-10-29T17:26:07.340Z,22.64
2022-10-29T17:28:37.246Z,22.60
2022-10-29T17:31:09.889Z,22.58
2022-10-29T17:33:37.969Z,22.60
2022-10-29T17:36:11.810Z,22.55
2022-10-29T17:38:40.114Z,22.53
2022-10-29T17:41:08.678Z,22.49
2022-10-29T17:43:37.132Z,22.46
2022-10-29T17:46:05.439Z,22.43
2022-10-29T17:48:33.881Z,22.41
2022-10-29T17:51:03.295Z,22.39
2022-10-29T17:53:31.870Z,22.38
2022-10-29T17:56:01.383Z,22.35
2022-10-29T17:58:31.162Z,22.32
2022-10-29T18:01:10.387Z,22.32
2022-10-29T18:03:38.595Z,22.30
2022-10-29T18:06:10.498Z,22.28
2022-10-29T18:08:41.823Z,22.27
2022-10-29T18:11:20.344Z,22.28
2022-10-29T18:13:50.468Z,22.23
2022-10-29T18:16:21.453Z,22.19
2022-10-29T18:19:02.230Z,22.16
2022-10-29T18:21:31.879Z,22.12
2022-10-29T18:23:59.985Z,22.08
2022-10-29T18:26:31.428Z,22.05
2022-10-29T18:29:03.468Z,22.00
2022-10-29T18:31:32.272Z,21.96
2022-10-29T18:34:06.039Z,21.90
2022-10-29T18:36:39.228Z,21.86
2022-10-29T18:39:07.912Z,21.84
2022-10-29T18:41:36.336Z,21.78
2022-10-29T18:44:04.563Z,21.75
2022-10-29T18:46:34.218Z,21.73
2022-10-29T18:49:02.504Z,21.71
2022-10-29T18:51:32.263Z,21.68
2022-10-29T18:54:00.492Z,21.66
2022-10-29T18:56:29.646Z,21.63
2022-10-29T18:58:59.156Z,21.60
2022-10-29T19:01:31.943Z,21.59
2022-10-29T19:04:04.231Z,21.58
2022-10-29T19:06:35.637Z,21.54
2022-10-29T19:09:07.925Z,21.53
2022-10-29T19:11:36.876Z,21.48
2022-10-29T19:14:09.627Z,21.45
2022-10-29T19:16:37.689Z,21.46
2022-10-29T19:19:10.716Z,21.41
2022-10-29T19:21:40.575Z,21.39
2022-10-29T19:24:13.577Z,21.34
2022-10-29T19:26:42.017Z,21.31
2022-10-29T19:29:11.182Z,21.29
2022-10-29T19:31:40.008Z,21.24
2022-10-29T19:34:08.717Z,21.21
2022-10-29T19:36:40.293Z,21.16
2022-10-29T19:39:08.569Z,21.14
2022-10-29T19:41:37.355Z,21.10
2022-10-29T19:44:06.697Z,21.10
2022-10-29T19:46:34.838Z,21.01
2022-10-29T19:49:03.682Z,20.98
2022-10-29T19:51:31.723Z,20.95
2022-10-29T19:54:02.167Z,20.94
2022-10-29T19:56:30.526Z,20.90
2022-10-29T19:58:58.639Z,20.89
2022-10-29T20:01:26.924Z,20.88
2022-10-29T20:03:55.045Z,20.83
2022-10-29T20:06:23.113Z,20.82
2022-10-29T20:08:51.329Z,20.84
2022-10-29T20:11:19.535Z,20.83
2022-10-29T20:13:47.708Z,20.83
2022-10-29T20:16:19.150Z,20.82
2022-10-29T20:18:48.794Z,20.77
2022-10-29T20:21:17.832Z,20.78
2022-10-29T20:23:46.176Z,20.78
2022-10-29T20:26:14.237Z,20.80
2022-10-29T20:28:42.438Z,20.82
2022-10-29T20:31:19.524Z,20.84
2022-10-29T20:33:52.926Z,20.83
2022-10-29T20:36:22.419Z,20.81
2022-10-29T20:38:52.320Z,20.82
2022-10-29T20:41:22.051Z,20.82
2022-10-29T20:43:56.283Z,20.84
2022-10-29T20:46:25.076Z,20.82
2022-10-29T20:48:53.382Z,20.80
2022-10-29T20:51:22.905Z,20.81
2022-10-29T20:53:52.675Z,20.79
2022-10-29T20:56:24.491Z,20.78
2022-10-29T20:58:52.944Z,20.77
2022-10-29T21:01:24.210Z,20.76
2022-10-29T21:03:52.554Z,20.74
2022-10-29T21:06:21.115Z,20.70
2022-10-29T21:08:51.259Z,20.65
2022-10-29T21:11:21.388Z,20.64
2022-10-29T21:13:50.043Z,20.63
2022-10-29T21:16:26.548Z,20.63
2022-10-29T21:19:00.974Z,20.61
2022-10-29T21:21:30.252Z,20.57
2022-10-29T21:23:58.715Z,20.54
2022-10-29T21:26:28.363Z,20.53
2022-10-29T21:28:57.042Z,20.49
2022-10-29T21:31:25.342Z,20.47
2022-10-29T21:33:54.645Z,20.43
2022-10-29T21:36:23.426Z,20.38
2022-10-29T21:38:52.021Z,20.37
2022-10-29T21:41:20.101Z,20.36
2022-10-29T21:43:48.176Z,20.34
2022-10-29T21:46:16.235Z,20.31
2022-10-29T21:48:44.334Z,20.27
2022-10-29T21:51:14.827Z,20.23
2022-10-29T21:53:43.025Z,20.21
2022-10-29T21:56:14.331Z,20.19
2022-10-29T21:58:42.554Z,20.15
2022-10-29T22:01:16.042Z,20.15
2022-10-29T22:03:47.229Z,20.26
2022-10-29T22:06:16.377Z,20.22
2022-10-29T22:08:45.681Z,20.15
2022-10-29T22:11:15.325Z,20.12
2022-10-29T22:13:43.503Z,20.11
2022-10-29T22:16:12.187Z,20.10
2022-10-29T22:18:40.782Z,20.08
2022-10-29T22:21:21.910Z,20.08
2022-10-29T22:23:56.743Z,20.04
2022-10-29T22:26:29.475Z,20.01
2022-10-29T22:28:57.584Z,20.00
2022-10-29T22:31:25.912Z,19.99
2022-10-29T22:33:54.203Z,19.96
2022-10-29T22:36:25.286Z,19.94
2022-10-29T22:38:58.786Z,19.90
2022-10-29T22:41:29.130Z,19.91
2022-10-29T22:44:02.972Z,19.87
2022-10-29T22:46:31.313Z,19.85
2022-10-29T22:49:01.195Z,19.85
2022-10-29T22:51:32.500Z,19.86
2022-10-29T22:54:02.022Z,19.84
2022-10-29T22:56:34.665Z,19.84
2022-10-29T22:59:05.032Z,19.82
2022-10-29T23:01:40.250Z,19.78
2022-10-29T23:04:12.232Z,19.77
2022-10-29T23:06:40.447Z,19.74
2022-10-29T23:09:08.667Z,19.72
2022-10-29T23:11:39.267Z,19.76
2022-10-29T23:14:07.698Z,19.72
2022-10-29T23:16:36.862Z,19.72
2022-10-29T23:19:06.371Z,19.71
2022-10-29T23:21:34.592Z,19.69
2022-10-29T23:24:02.791Z,19.69
2022-10-29T23:26:30.855Z,19.70
2022-10-29T23:28:59.059Z,19.70
2022-10-29T23:31:29.058Z,19.70
2022-10-29T23:33:58.609Z,19.71
2022-10-29T23:36:27.847Z,19.67
2022-10-29T23:39:01.490Z,19.67
2022-10-29T23:41:30.659Z,19.76
2022-10-29T23:43:59.551Z,19.68
2022-10-29T23:46:27.659Z,19.62
2022-10-29T23:48:55.836Z,19.58
2022-10-29T23:51:23.988Z,19.58
2022-10-29T23:53:54.902Z,19.55
2022-10-29T23:56:26.445Z,19.54
2022-10-29T23:58:54.885Z,19.52
